Time;durP1;ratioP1;P1;durP2;ratioP2;P2;SDS_P1;SDS_P2;PMS_P1;PMS_P2;Temp;Humidity;BMP_temperature;BMP_pressure;BME280_temperature;BME280_humidity;BME280_pressure;Samples;Min_cycle;Max_cycle;Signal;HPM_P1;HPM_P2
2023/07/08 00:00:54;;;;;;;10.07;4.15;;;20.10;85.60;;;;;;5071431;28;20486;-87
2023/07/08 00:03:20;;;;;;;9.98;4.40;;;20.00;85.90;;;;;;5072124;28;20039;-87
2023/07/08 00:05:48;;;;;;;9.13;4.25;;;20.00;86.10;;;;;;5072010;28;20045;-87
2023/07/08 00:08:14;;;;;;;9.30;4.50;;;20.00;86.40;;;;;;5071832;28;20405;-87
2023/07/08 00:10:40;;;;;;;8.63;4.25;;;20.00;87.00;;;;;;5070676;28;20040;-87
2023/07/08 00:13:05;;;;;;;8.35;4.15;;;19.90;87.50;;;;;;5072062;28;20128;-87
2023/07/08 00:15:32;;;;;;;10.00;4.85;;;19.90;87.80;;;;;;5071775;28;20044;-87
2023/07/08 00:17:59;;;;;;;10.90;4.70;;;19.90;88.00;;;;;;5071901;28;20036;-87
2023/07/08 00:20:36;;;;;;;12.13;4.82;;;19.80;88.30;;;;;;5071057;28;20091;-87
2023/07/08 00:23:02;;;;;;;9.10;3.97;;;19.80;88.60;;;;;;5071426;28;20052;-87
2023/07/08 00:25:29;;;;;;;9.20;4.38;;;19.80;89.10;;;;;;5071607;28;20036;-87
2023/07/08 00:27:54;;;;;;;8.80;4.60;;;19.70;89.70;;;;;;5071402;28;20521;-87
2023/07/08 00:30:24;;;;;;;9.32;5.00;;;19.70;89.90;;;;;;5070963;28;20068;-87
2023/07/08 00:32:54;;;;;;;8.48;4.57;;;19.70;89.90;;;;;;5071484;28;20049;-87
2023/07/08 00:35:43;;;;;;;8.90;4.57;;;19.60;90.10;;;;;;5087514;28;20048;-87
2023/07/08 00:38:28;;;;;;;10.88;5.68;;;19.60;90.10;;;;;;5071566;28;20040;-87
2023/07/08 00:41:02;;;;;;;8.35;4.50;;;19.60;90.40;;;;;;5070850;28;20036;-87
2023/07/08 00:43:51;;;;;;;10.07;4.75;;;19.50;90.70;;;;;;5071031;28;20082;-87
2023/07/08 00:46:29;;;;;;;8.88;4.70;;;19.50;90.90;;;;;;5071059;28;20070;-87
2023/07/08 00:49:07;;;;;;;10.73;4.75;;;19.50;91.20;;;;;;5071576;28;20449;-87
2023/07/08 00:51:33;;;;;;;9.32;4.35;;;19.40;91.50;;;;;;5070217;28;20036;-87
2023/07/08 00:53:59;;;;;;;8.93;4.07;;;19.40;91.70;;;;;;5070417;28;20429;-87
2023/07/08 00:56:40;;;;;;;9.70;4.35;;;19.40;91.70;;;;;;5070895;28;20032;-87
2023/07/08 00:59:11;;;;;;;10.40;4.63;;;19.40;91.70;;;;;;5071345;28;20036;-87
2023/07/08 01:01:40;;;;;;;9.35;4.60;;;19.30;92.00;;;;;;5070325;28;20494;-87
2023/07/08 01:04:23;;;;;;;9.75;5.00;;;19.30;92.30;;;;;;5070986;28;20510;-87
2023/07/08 01:06:56;;;;;;;10.68;4.80;;;19.30;92.30;;;;;;5070923;28;20036;-87
2023/07/08 01:09:28;;;;;;;9.07;4.43;;;19.30;92.70;;;;;;5071123;28;20074;-87
2023/07/08 01:11:57;;;;;;;9.55;4.88;;;19.30;92.90;;;;;;5071233;28;20053;-87
2023/07/08 01:14:26;;;;;;;10.35;5.05;;;19.20;92.90;;;;;;5071078;28;20133;-87
2023/07/08 01:16:51;;;;;;;10.35;5.22;;;19.20;93.30;;;;;;5071251;28;20037;-87
2023/07/08 01:19:20;;;;;;;9.20;5.00;;;19.20;93.40;;;;;;5070955;28;20391;-87
2023/07/08 01:22:07;;;;;;;8.73;4.70;;;19.10;93.60;;;;;;5070181;28;20569;-87
2023/07/08 01:24:36;;;;;;;9.60;4.85;;;19.10;93.40;;;;;;5070787;28;20525;-87
2023/07/08 01:27:05;;;;;;;8.75;4.43;;;19.10;94.00;;;;;;5070798;28;20036;-87
2023/07/08 01:29:31;;;;;;;10.15;5.07;;;19.00;94.30;;;;;;5070193;28;20082;-87
2023/07/08 01:31:58;;;;;;;10.45;5.13;;;19.00;94.40;;;;;;5069458;28;20044;-87
2023/07/08 01:34:24;;;;;;;9.07;3.30;;;19.00;94.60;;;;;;5071044;28;20049;-87
2023/07/08 01:36:53;;;;;;;10.88;4.93;;;18.90;94.30;;;;;;5070960;28;20041;-87
2023/07/08 01:39:21;;;;;;;8.75;4.90;;;18.90;95.10;;;;;;5070735;28;20498;-87
2023/07/08 01:41:47;;;;;;;9.60;4.70;;;18.90;95.10;;;;;;5070204;28;20044;-87
2023/07/08 01:44:29;;;;;;;10.93;5.03;;;18.90;95.00;;;;;;5070586;28;20461;-87
2023/07/08 01:46:59;;;;;;;10.23;4.45;;;18.90;95.20;;;;;;5070790;28;20453;-87
2023/07/08 01:49:25;;;;;;;9.20;4.80;;;18.90;95.60;;;;;;5069718;28;20044;-86
2023/07/08 01:51:50;;;;;;;9.65;4.90;;;18.80;95.60;;;;;;5070236;28;20842;-87
2023/07/08 01:54:16;;;;;;;8.32;4.70;;;18.80;95.70;;;;;;5070379;28;20044;-87
2023/07/08 01:56:42;;;;;;;8.52;4.55;;;18.80;95.90;;;;;;5070628;28;20044;-87
2023/07/08 01:59:07;;;;;;;9.30;4.63;;;18.80;95.90;;;;;;5070301;28;20575;-87
2023/07/08 02:01:33;;;;;;;9.10;4.90;;;18.80;96.30;;;;;;5069863;28;20036;-87
2023/07/08 02:03:58;;;;;;;10.77;4.80;;;18.80;96.40;;;;;;5071497;28;20452;-87
2023/07/08 02:06:24;;;;;;;10.10;4.97;;;18.80;96.40;;;;;;5074205;28;20119;-86
2023/07/08 02:08:50;;;;;;;10.98;5.47;;;18.70;96.80;;;;;;5073868;28;20514;-87
2023/07/08 02:11:17;;;;;;;9.10;5.03;;;18.70;96.80;;;;;;5073047;28;20079;-87
2023/07/08 02:13:42;;;;;;;9.55;5.00;;;18.70;96.90;;;;;;5073707;28;20037;-86
2023/07/08 02:16:08;;;;;;;10.68;5.63;;;18.70;97.10;;;;;;5074114;28;20155;-86
2023/07/08 02:18:34;;;;;;;11.18;4.82;;;18.70;97.50;;;;;;5073736;28;20518;-86
2023/07/08 02:20:59;;;;;;;11.63;5.55;;;18.60;97.40;;;;;;5073054;28;20119;-86
2023/07/08 02:23:26;;;;;;;9.77;5.25;;;18.60;97.60;;;;;;5073663;28;20033;-86
2023/07/08 02:25:52;;;;;;;10.07;5.15;;;18.60;97.60;;;;;;5073625;28;20091;-87
2023/07/08 02:28:18;;;;;;;11.48;5.35;;;18.60;97.90;;;;;;5073292;28;20076;-86
2023/07/08 02:30:45;;;;;;;11.73;5.35;;;18.60;97.90;;;;;;5073072;28;20068;-87
2023/07/08 02:33:11;;;;;;;10.10;5.18;;;18.50;98.30;;;;;;5073520;28;20040;-86
2023/07/08 02:35:37;;;;;;;9.27;5.13;;;18.50;98.40;;;;;;5073426;28;20116;-87
2023/07/08 02:38:03;;;;;;;10.60;5.07;;;18.50;98.50;;;;;;5073548;28;20426;-87
2023/07/08 02:40:28;;;;;;;8.60;5.00;;;18.50;98.80;;;;;;5072577;28;20036;-86
2023/07/08 02:42:54;;;;;;;9.52;4.68;;;18.50;98.70;;;;;;5072109;28;20051;-86
2023/07/08 02:45:21;;;;;;;9.13;4.03;;;18.40;98.90;;;;;;5073686;28;20036;-87
2023/07/08 02:47:46;;;;;;;9.60;5.07;;;18.40;98.60;;;;;;5073209;28;20037;-86
2023/07/08 02:50:13;;;;;;;10.18;5.22;;;18.30;99.70;;;;;;5071147;28;20101;-86
2023/07/08 02:52:39;;;;;;;9.02;5.10;;;18.40;99.50;;;;;;5073202;28;20102;-87
2023/07/08 02:55:05;;;;;;;8.82;5.05;;;18.40;99.70;;;;;;5071891;28;20080;-87
2023/07/08 02:57:31;;;;;;;11.65;5.30;;;18.40;99.90;;;;;;5073140;28;20501;-87
2023/07/08 02:59:56;;;;;;;11.45;5.13;;;18.30;99.90;;;;;;5072333;28;20048;-87
2023/07/08 03:02:22;;;;;;;9.50;5.53;;;18.30;99.70;;;;;;5073248;28;20502;-86
2023/07/08 03:04:49;;;;;;;10.50;5.28;;;18.30;99.80;;;;;;5072902;28;20034;-87
2023/07/08 03:07:15;;;;;;;9.73;5.30;;;18.30;99.90;;;;;;5073176;28;20040;-87
2023/07/08 03:09:41;;;;;;;9.68;5.50;;;18.30;99.90;;;;;;5071642;28;20036;-87
2023/07/08 03:12:09;;;;;;;10.35;4.95;;;18.30;99.90;;;;;;5072664;28;20093;-86
2023/07/08 03:14:35;;;;;;;8.60;5.13;;;18.30;99.90;;;;;;5072221;28;20083;-86
2023/07/08 03:17:01;;;;;;;10.57;5.18;;;18.20;99.90;;;;;;5072124;28;20048;-86
2023/07/08 03:19:26;;;;;;;8.55;3.88;;;18.20;99.90;;;;;;5072139;28;20092;-87
2023/07/08 03:21:52;;;;;;;9.98;5.40;;;18.20;99.90;;;;;;5072476;28;20032;-86
2023/07/08 03:24:18;;;;;;;12.50;5.55;;;18.20;99.90;;;;;;5072350;28;20037;-86
2023/07/08 03:26:45;;;;;;;10.07;5.22;;;18.10;99.90;;;;;;5072426;28;20182;-86
2023/07/08 03:29:18;;;;;;;10.05;5.45;;;18.10;99.90;;;;;;5071329;28;20074;-86
2023/07/08 03:31:44;;;;;;;9.85;5.30;;;18.10;99.90;;;;;;5071569;28;20036;-87
2023/07/08 03:34:12;;;;;;;10.27;5.07;;;18.10;99.90;;;;;;5072205;28;20043;-86
2023/07/08 03:36:48;;;;;;;9.50;5.10;;;18.10;99.90;;;;;;5071285;28;20052;-87
2023/07/08 03:39:18;;;;;;;11.88;5.18;;;18.10;99.90;;;;;;5072096;28;20493;-86
2023/07/08 03:41:44;;;;;;;11.38;4.13;;;18.10;99.90;;;;;;5071577;28;20043;-86
2023/07/08 03:44:10;;;;;;;9.25;5.53;;;18.00;99.90;;;;;;5072184;28;20072;-86
2023/07/08 03:46:36;;;;;;;9.77;5.60;;;18.00;99.90;;;;;;5072230;28;20275;-86
2023/07/08 03:49:01;;;;;;;10.02;5.03;;;18.10;99.90;;;;;;5071677;28;20186;-86
2023/07/08 03:51:31;;;;;;;9.63;5.53;;;18.10;99.90;;;;;;5070966;28;20395;-87
2023/07/08 03:53:57;;;;;;;9.77;5.00;;;18.00;99.90;;;;;;5072055;28;20087;-87
2023/07/08 03:56:23;;;;;;;13.23;5.30;;;18.10;99.90;;;;;;5071996;28;20036;-87
2023/07/08 03:58:49;;;;;;;9.75;4.72;;;18.00;99.90;;;;;;5071994;28;20041;-87
2023/07/08 04:01:23;;;;;;;10.55;5.43;;;18.00;99.90;;;;;;5071253;28;20040;-87
2023/07/08 04:03:52;;;;;;;8.98;5.40;;;18.10;99.90;;;;;;5071533;28;20551;-86
2023/07/08 04:06:18;;;;;;;9.90;5.18;;;18.10;99.90;;;;;;5072112;28;20079;-87
2023/07/08 04:08:44;;;;;;;9.60;5.43;;;18.00;99.90;;;;;;5071844;28;20040;-86
2023/07/08 04:11:13;;;;;;;8.52;3.88;;;18.00;99.90;;;;;;5071114;28;20060;-86
2023/07/08 04:13:39;;;;;;;9.20;5.10;;;18.00;99.90;;;;;;5071342;28;20146;-86
2023/07/08 04:16:05;;;;;;;9.43;5.10;;;17.90;99.90;;;;;;5071526;28;20536;-87
2023/07/08 04:18:31;;;;;;;11.48;5.63;;;18.00;99.90;;;;;;5071502;28;20033;-86
2023/07/08 04:20:57;;;;;;;9.85;5.03;;;18.00;99.90;;;;;;5071005;28;20040;-87
2023/07/08 04:23:23;;;;;;;8.63;4.00;;;18.00;99.90;;;;;;5071762;28;20044;-86
2023/07/08 04:25:52;;;;;;;10.85;5.43;;;18.00;99.90;;;;;;5071274;28;20410;-87
2023/07/08 04:28:18;;;;;;;11.13;5.80;;;18.00;99.90;;;;;;5071504;28;20541;-87
2023/07/08 04:30:43;;;;;;;10.60;5.65;;;18.00;99.90;;;;;;5070181;28;20115;-86
2023/07/08 04:33:11;;;;;;;9.82;5.53;;;18.00;99.90;;;;;;5070935;28;20401;-87
2023/07/08 04:35:38;;;;;;;9.40;5.53;;;18.00;99.90;;;;;;5071429;28;20036;-87
2023/07/08 04:38:24;;;;;;;9.27;5.13;;;18.00;99.90;;;;;;5071210;28;20505;-87
2023/07/08 04:40:51;;;;;;;9.98;5.93;;;18.00;99.90;;;;;;5070821;28;20039;-87
2023/07/08 04:43:18;;;;;;;8.63;5.30;;;18.00;99.90;;;;;;5071299;28;20048;-87
2023/07/08 04:45:47;;;;;;;10.52;4.32;;;18.10;99.90;;;;;;5071121;28;20036;-87
2023/07/08 04:48:15;;;;;;;10.95;5.55;;;18.00;99.90;;;;;;5071508;28;20041;-87
2023/07/08 04:50:46;;;;;;;8.90;5.35;;;18.10;99.90;;;;;;5070051;28;20055;-87
2023/07/08 04:53:12;;;;;;;8.82;5.15;;;18.10;99.90;;;;;;5071041;28;20040;-87
2023/07/08 04:55:44;;;;;;;8.50;4.10;;;18.10;99.90;;;;;;5070840;28;20047;-87
2023/07/08 04:58:10;;;;;;;11.00;5.20;;;18.10;99.90;;;;;;5070830;28;20043;-87
2023/07/08 05:00:36;;;;;;;10.27;5.22;;;18.10;99.90;;;;;;5070378;28;20044;-87
2023/07/08 05:03:01;;;;;;;9.38;5.25;;;18.20;99.90;;;;;;5071090;28;20056;-86
2023/07/08 05:05:27;;;;;;;9.93;5.00;;;18.20;99.90;;;;;;5071243;28;20414;-87
2023/07/08 05:07:53;;;;;;;9.60;5.03;;;18.30;99.90;;;;;;5071265;28;20076;-87
2023/07/08 05:10:19;;;;;;;9.45;5.75;;;18.30;99.90;;;;;;5070000;28;20044;-87
2023/07/08 05:12:45;;;;;;;9.75;5.00;;;18.30;99.90;;;;;;5070643;28;20421;-86
2023/07/08 05:15:11;;;;;;;10.57;5.05;;;18.30;99.90;;;;;;5070833;28;20055;-86
2023/07/08 05:17:39;;;;;;;9.68;4.78;;;18.40;99.90;;;;;;5070942;28;20116;-86
2023/07/08 05:20:09;;;;;;;9.68;5.03;;;18.40;99.90;;;;;;5070265;28;20524;-87
2023/07/08 05:22:35;;;;;;;9.98;5.25;;;18.40;99.90;;;;;;5070985;28;20494;-86
2023/07/08 05:25:01;;;;;;;10.18;5.10;;;18.50;99.90;;;;;;5070980;28;20033;-87
2023/07/08 05:27:27;;;;;;;9.00;5.22;;;18.50;99.90;;;;;;5069431;28;20074;-87
2023/07/08 05:29:53;;;;;;;9.95;5.47;;;18.60;99.90;;;;;;5068506;28;20052;-86
2023/07/08 05:32:19;;;;;;;10.40;4.82;;;18.60;99.90;;;;;;5070863;28;20072;-87
2023/07/08 05:34:45;;;;;;;10.40;5.00;;;18.60;99.90;;;;;;5070755;28;20056;-87
2023/07/08 05:37:12;;;;;;;10.05;5.53;;;18.70;99.90;;;;;;5070834;28;20098;-87
2023/07/08 05:39:37;;;;;;;9.82;5.10;;;18.70;99.90;;;;;;5070651;28;20070;-87
2023/07/08 05:42:03;;;;;;;9.85;5.07;;;18.80;99.90;;;;;;5074117;28;20124;-87
2023/07/08 05:44:29;;;;;;;9.30;5.15;;;18.80;99.90;;;;;;5074441;28;20414;-87
2023/07/08 05:46:54;;;;;;;10.82;5.05;;;18.90;99.90;;;;;;5074240;28;20039;-87
2023/07/08 05:49:20;;;;;;;9.80;4.65;;;18.90;99.90;;;;;;5074243;28;20040;-87
2023/07/08 05:51:46;;;;;;;10.45;4.90;;;19.00;99.90;;;;;;5073429;28;20062;-87
2023/07/08 05:54:12;;;;;;;9.80;5.30;;;19.00;99.90;;;;;;5064399;28;20387;-87
2023/07/08 05:56:37;;;;;;;9.27;4.85;;;19.10;99.90;;;;;;5062379;28;20040;-87
2023/07/08 05:59:04;;;;;;;10.02;4.68;;;19.10;99.90;;;;;;5064246;28;20040;-87
2023/07/08 06:01:30;;;;;;;8.15;4.78;;;19.20;99.90;;;;;;5067759;28;20033;-87
2023/07/08 06:03:59;;;;;;;9.55;4.75;;;19.30;99.90;;;;;;5054722;28;20095;-87
2023/07/08 06:06:26;;;;;;;9.57;4.72;;;19.40;99.90;;;;;;5054113;28;20033;-86
2023/07/08 06:08:52;;;;;;;11.70;5.00;;;19.40;99.90;;;;;;5054068;28;20406;-86
2023/07/08 06:11:18;;;;;;;9.70;4.78;;;19.50;99.90;;;;;;5052887;28;20086;-86
2023/07/08 06:13:43;;;;;;;8.18;4.20;;;19.50;99.90;;;;;;5053568;28;20053;-86
2023/07/08 06:16:09;;;;;;;8.50;4.45;;;19.60;99.90;;;;;;5053904;28;20041;-87
2023/07/08 06:18:34;;;;;;;8.25;4.35;;;19.70;99.90;;;;;;5053711;28;20431;-87
2023/07/08 06:21:01;;;;;;;8.82;4.45;;;19.80;99.90;;;;;;5053049;28;20049;-86
2023/07/08 06:23:27;;;;;;;8.85;4.40;;;19.90;99.90;;;;;;5053397;28;20056;-87
2023/07/08 06:25:53;;;;;;;8.80;4.28;;;19.90;99.90;;;;;;5053786;28;20148;-86
2023/07/08 06:28:19;;;;;;;10.20;4.10;;;20.00;99.90;;;;;;5053752;28;20076;-86
2023/07/08 06:30:45;;;;;;;8.45;4.47;;;20.10;99.90;;;;;;5052557;28;20091;-86
2023/07/08 06:33:12;;;;;;;8.60;4.22;;;20.20;99.90;;;;;;5053242;28;20072;-86
2023/07/08 06:35:38;;;;;;;8.27;4.05;;;20.20;99.90;;;;;;5053293;28;20048;-86
2023/07/08 06:38:04;;;;;;;9.05;3.83;;;20.30;99.90;;;;;;5053290;28;20041;-87
2023/07/08 06:40:30;;;;;;;8.30;4.00;;;20.40;99.90;;;;;;5052784;28;20037;-86
2023/07/08 06:42:56;;;;;;;11.07;3.90;;;20.40;99.90;;;;;;5053454;28;20053;-86
2023/07/08 06:45:22;;;;;;;8.15;3.80;;;20.50;99.90;;;;;;5053470;28;20143;-87
2023/07/08 06:47:47;;;;;;;8.88;3.83;;;20.60;99.00;;;;;;5053169;28;20120;-87
2023/07/08 06:50:13;;;;;;;10.43;4.80;;;20.60;98.70;;;;;;5050751;28;20410;-87
2023/07/08 06:52:38;;;;;;;8.25;3.75;;;20.70;98.70;;;;;;5051889;28;20033;-87
2023/07/08 06:55:07;;;;;;;9.45;4.20;;;20.80;99.00;;;;;;5050846;28;20052;-87
2023/07/08 06:57:33;;;;;;;9.65;4.30;;;20.80;98.10;;;;;;5052886;28;20041;-87
2023/07/08 06:59:59;;;;;;;8.07;4.10;;;20.90;98.10;;;;;;5052035;28;20379;-87
2023/07/08 07:02:25;;;;;;;7.88;3.75;;;21.00;98.80;;;;;;5052765;28;20041;-88
2023/07/08 07:04:51;;;;;;;9.40;3.80;;;21.10;98.70;;;;;;5051406;28;20124;-87
2023/07/08 07:07:17;;;;;;;10.02;4.00;;;21.20;99.20;;;;;;5052767;28;20119;-88
2023/07/08 07:09:42;;;;;;;10.00;4.15;;;21.30;98.20;;;;;;5050628;28;20552;-87
2023/07/08 07:12:08;;;;;;;9.30;3.65;;;21.40;98.00;;;;;;5051314;28;20080;-87
2023/07/08 07:14:34;;;;;;;8.52;3.88;;;21.50;97.10;;;;;;5052562;28;20041;-87
2023/07/08 07:17:00;;;;;;;8.00;4.20;;;21.50;95.80;;;;;;5052799;28;20534;-87
2023/07/08 07:19:26;;;;;;;9.10;4.00;;;21.60;95.10;;;;;;5051939;28;20632;-88
2023/07/08 07:21:51;;;;;;;8.93;4.20;;;21.70;95.00;;;;;;5052111;28;20041;-87
2023/07/08 07:24:17;;;;;;;9.98;4.03;;;21.70;94.40;;;;;;5052815;28;20068;-87
2023/07/08 07:26:43;;;;;;;8.75;3.70;;;21.80;93.40;;;;;;5052804;28;20037;-87
2023/07/08 07:29:09;;;;;;;8.90;3.30;;;21.90;92.90;;;;;;5052735;28;20033;-87
2023/07/08 07:31:35;;;;;;;12.52;3.92;;;21.90;93.10;;;;;;5050169;28;20100;-88
2023/07/08 07:34:01;;;;;;;20.48;4.90;;;22.00;92.70;;;;;;5052442;28;20068;-88
2023/07/08 07:36:28;;;;;;;15.77;4.68;;;22.10;91.60;;;;;;5052390;28;20059;-88
2023/07/08 07:38:54;;;;;;;10.68;4.15;;;22.20;91.20;;;;;;5052650;28;20037;-88
2023/07/08 07:41:20;;;;;;;7.40;3.47;;;22.20;91.40;;;;;;5051885;28;20043;-88
2023/07/08 07:43:46;;;;;;;8.80;3.63;;;22.30;91.00;;;;;;5052179;28;20041;-88
2023/07/08 07:46:12;;;;;;;40.42;16.20;;;22.40;90.10;;;;;;5052267;28;20042;-88
2023/07/08 07:48:39;;;;;;;31.00;16.90;;;22.50;90.20;;;;;;5052291;28;20076;-88
2023/07/08 07:51:05;;;;;;;40.75;16.17;;;22.50;90.60;;;;;;5049762;28;20044;-88
2023/07/08 07:53:31;;;;;;;19.10;9.05;;;22.60;90.60;;;;;;5052428;28;20059;-88
2023/07/08 07:55:58;;;;;;;35.10;20.70;;;22.70;90.40;;;;;;5052014;28;20494;-88
2023/07/08 07:58:24;;;;;;;16.50;8.25;;;22.70;90.50;;;;;;5051950;28;20043;-88
2023/07/08 08:00:49;;;;;;;12.70;5.35;;;22.80;89.20;;;;;;5051711;28;20037;-88
2023/07/08 08:03:16;;;;;;;10.05;4.32;;;22.80;87.90;;;;;;5051961;28;20037;-88
2023/07/08 08:05:42;;;;;;;10.73;4.20;;;22.90;87.70;;;;;;5052023;28;20045;-88
2023/07/08 08:08:08;;;;;;;8.48;4.05;;;23.00;88.20;;;;;;5052632;28;20040;-88
2023/07/08 08:10:35;;;;;;;10.52;3.80;;;23.00;88.00;;;;;;5051688;28;20041;-88
2023/07/08 08:13:02;;;;;;;9.07;3.72;;;23.10;87.00;;;;;;5052040;28;20567;-88
2023/07/08 08:15:28;;;;;;;10.18;3.80;;;23.00;87.00;;;;;;5050071;28;20490;-88
2023/07/08 08:17:54;;;;;;;9.77;4.20;;;23.10;86.80;;;;;;5051476;28;20072;-88
2023/07/08 08:20:21;;;;;;;9.50;3.63;;;23.10;85.60;;;;;;5050730;28;20371;-88
2023/07/08 08:22:46;;;;;;;9.10;3.53;;;23.10;85.80;;;;;;5051807;28;20033;-88
2023/07/08 08:25:13;;;;;;;8.77;3.85;;;23.20;86.30;;;;;;5052054;28;20037;-88
2023/07/08 08:27:39;;;;;;;8.18;4.03;;;23.30;87.60;;;;;;5052008;28;20044;-88
2023/07/08 08:30:05;;;;;;;9.43;3.90;;;23.30;86.90;;;;;;5050886;28;20029;-88
2023/07/08 08:32:31;;;;;;;10.95;3.65;;;23.50;85.70;;;;;;5051450;28;20395;-88
2023/07/08 08:34:57;;;;;;;8.52;3.42;;;23.60;87.30;;;;;;5051865;28;20044;-87
2023/07/08 08:37:23;;;;;;;9.40;3.90;;;23.60;88.50;;;;;;5051840;28;20087;-88
2023/07/08 08:39:49;;;;;;;9.57;3.47;;;23.70;87.50;;;;;;5049360;28;20052;-88
2023/07/08 08:42:34;;;;;;;8.88;3.40;;;23.80;85.20;;;;;;5051597;28;20047;-88
2023/07/08 08:45:03;;;;;;;8.15;3.78;;;23.90;84.90;;;;;;5050279;28;20059;-88
2023/07/08 08:47:37;;;;;;;7.75;3.60;;;23.90;84.20;;;;;;5067318;28;20037;-88
2023/07/08 08:50:35;;;;;;;8.30;3.53;;;24.00;83.40;;;;;;5064770;28;20111;-88
2023/07/08 08:53:04;;;;;;;9.25;3.58;;;24.10;82.60;;;;;;5070210;28;20085;-88
2023/07/08 08:55:30;;;;;;;8.73;3.65;;;24.10;83.50;;;;;;5071448;28;20045;-89
2023/07/08 08:58:04;;;;;;;9.05;3.70;;;24.20;82.70;;;;;;5070945;28;20037;-88
2023/07/08 09:00:54;;;;;;;9.38;3.88;;;24.30;83.00;;;;;;5050928;28;20087;-89
2023/07/08 09:03:58;;;;;;;9.18;4.00;;;24.50;81.30;;;;;;5051469;28;20048;-89
2023/07/08 09:06:33;;;;;;;7.65;3.78;;;24.50;80.60;;;;;;5050366;28;20183;-89
2023/07/08 09:09:16;;;;;;;9.15;3.97;;;24.60;78.50;;;;;;5051377;28;20055;-89
2023/07/08 09:12:03;;;;;;;11.60;5.18;;;24.70;78.80;;;;;;5050220;28;20044;-89
2023/07/08 09:14:32;;;;;;;8.88;3.88;;;24.80;81.90;;;;;;5052846;28;20502;-89
2023/07/08 09:17:21;;;;;;;8.50;4.10;;;24.90;81.70;;;;;;5055421;28;20089;-89
2023/07/08 09:20:05;;;;;;;11.90;4.43;;;24.90;81.50;;;;;;5055015;28;20074;-89
2023/07/08 09:22:42;;;;;;;18.77;8.98;;;25.00;80.30;;;;;;5055271;28;20060;-89
2023/07/08 09:25:28;;;;;;;9.15;4.00;;;25.00;80.60;;;;;;5055480;28;20037;-89
2023/07/08 09:27:55;;;;;;;7.78;3.42;;;25.20;79.80;;;;;;5055134;28;20045;-89
2023/07/08 09:30:23;;;;;;;11.52;3.97;;;25.20;79.40;;;;;;5054427;28;20120;-89
2023/07/08 09:32:49;;;;;;;9.95;4.07;;;25.30;80.30;;;;;;5054896;28;20041;-89
2023/07/08 09:35:24;;;;;;;11.27;4.38;;;25.40;79.70;;;;;;5055167;28;20036;-89
2023/07/08 09:37:50;;;;;;;8.00;3.22;;;25.50;80.30;;;;;;5054457;28;20500;-89
2023/07/08 09:40:15;;;;;;;10.98;3.75;;;25.50;79.60;;;;;;5054546;28;20136;-89
2023/07/08 09:42:43;;;;;;;8.93;3.63;;;25.60;78.50;;;;;;5055108;28;20414;-89
2023/07/08 09:45:15;;;;;;;10.45;4.07;;;25.70;78.50;;;;;;5054858;28;20033;-89
2023/07/08 09:47:43;;;;;;;;;;;25.80;76.70;;;;;;5055215;28;20411;-89
2023/07/08 09:50:18;;;;;;;7.50;4.03;;;25.90;76.30;;;;;;5054196;28;19916;-89
2023/07/08 09:52:44;;;;;;;8.63;3.88;;;26.00;76.80;;;;;;5054350;28;20418;-89
2023/07/08 09:55:13;;;;;;;8.75;4.05;;;26.10;76.50;;;;;;5054775;28;20500;-89
2023/07/08 09:57:39;;;;;;;10.50;3.83;;;26.20;75.40;;;;;;5054634;28;20037;-89
2023/07/08 10:00:12;;;;;;;8.32;3.80;;;26.30;75.30;;;;;;5053894;28;20447;-89
2023/07/08 10:02:58;;;;;;;7.70;3.58;;;26.40;73.80;;;;;;5054753;28;20044;-89
2023/07/08 10:05:37;;;;;;;8.35;3.63;;;26.40;75.40;;;;;;5054918;28;20126;-89
2023/07/08 10:08:14;;;;;;;9.73;4.10;;;26.50;74.80;;;;;;5054509;28;20033;-90
2023/07/08 10:10:41;;;;;;;8.25;3.78;;;26.60;74.70;;;;;;5052050;28;20437;-89
2023/07/08 10:13:45;;;;;;;12.18;3.95;;;26.70;75.30;;;;;;5054363;28;20033;-89
2023/07/08 10:16:15;;;;;;;7.60;3.70;;;26.80;73.90;;;;;;5030950;28;20057;-89
2023/07/08 10:18:41;;;;;;;8.75;3.80;;;26.90;71.70;;;;;;5031539;28;20057;-89
2023/07/08 10:21:36;;;;;;;9.70;4.00;;;27.00;70.70;;;;;;5033008;28;20138;-90
2023/07/08 10:24:19;;;;;;;8.55;3.78;;;27.10;72.00;;;;;;5057608;28;20071;-89
2023/07/08 10:26:49;;;;;;;9.30;3.50;;;27.20;70.90;;;;;;5062768;28;20402;-89
2023/07/08 10:29:29;;;;;;;7.63;3.85;;;27.30;70.40;;;;;;5071899;28;20123;-89
2023/07/08 10:32:00;;;;;;;10.05;4.00;;;27.30;70.00;;;;;;5070724;28;20552;-89
2023/07/08 10:34:51;;;;;;;9.00;3.85;;;27.50;68.90;;;;;;5071487;28;20040;-89
2023/07/08 10:37:19;;;;;;;9.23;4.05;;;27.50;68.60;;;;;;5070672;28;20062;-89
2023/07/08 10:40:13;;;;;;;9.48;3.90;;;27.60;68.30;;;;;;5070133;28;20303;-89
2023/07/08 10:42:58;;;;;;;8.43;3.90;;;27.70;68.90;;;;;;5071203;28;20094;-89
2023/07/08 10:45:36;;;;;;;8.30;3.67;;;27.90;69.40;;;;;;5071538;28;20055;-89
2023/07/08 10:48:29;;;;;;;8.50;4.00;;;28.00;68.50;;;;;;5071295;28;20055;-89
2023/07/08 10:51:26;;;;;;;10.10;3.85;;;28.10;67.00;;;;;;5072434;28;20144;-89
2023/07/08 10:54:20;;;;;;;9.88;3.42;;;28.20;66.80;;;;;;5066155;28;20041;-89
2023/07/08 10:57:02;;;;;;;8.73;3.80;;;28.30;66.60;;;;;;5052396;28;20048;-89
2023/07/08 10:59:54;;;;;;;8.85;3.85;;;28.40;66.50;;;;;;5052828;28;20120;-89
2023/07/08 11:02:22;;;;;;;;;;;28.50;65.90;;;;;;5053840;28;20073;-89
2023/07/08 11:04:51;;;;;;;7.38;3.50;;;28.50;66.40;;;;;;5053299;28;20452;-89
2023/07/08 11:07:40;;;;;;;7.70;3.80;;;28.70;64.40;;;;;;5053318;28;20044;-90
2023/07/08 11:10:17;;;;;;;7.68;3.78;;;28.80;64.00;;;;;;5052849;28;20037;-89
2023/07/08 11:12:50;;;;;;;8.55;3.58;;;28.90;64.60;;;;;;5053174;28;20087;-90
2023/07/08 11:15:25;;;;;;;8.88;4.25;;;29.00;63.70;;;;;;5052897;28;20136;-89
2023/07/08 11:18:13;;;;;;;8.45;3.53;;;29.10;62.80;;;;;;5053212;28;20098;-89
2023/07/08 11:20:50;;;;;;;8.43;4.07;;;29.20;63.00;;;;;;5052647;28;21011;-90
2023/07/08 11:23:27;;;;;;;9.00;3.88;;;29.30;61.70;;;;;;5052924;28;20055;-90
2023/07/08 11:26:36;;;;;;;7.47;3.70;;;29.40;62.10;;;;;;5053148;28;20036;-90
2023/07/08 11:29:03;;;;;;;8.13;3.88;;;29.50;63.20;;;;;;5005248;28;20044;-90
2023/07/08 11:31:32;;;;;;;7.43;4.00;;;29.60;62.30;;;;;;5037994;28;20049;-90
2023/07/08 11:33:59;;;;;;;9.20;4.03;;;29.70;61.60;;;;;;5039330;28;20048;-90
2023/07/08 11:36:27;;;;;;;7.75;3.97;;;29.80;61.40;;;;;;5040036;28;20079;-91
2023/07/08 11:38:57;;;;;;;9.63;4.30;;;29.90;61.90;;;;;;5040440;28;20040;-91
2023/07/08 11:41:31;;;;;;;9.07;4.18;;;30.00;60.50;;;;;;5045601;28;20514;-91
2023/07/08 11:43:58;;;;;;;8.98;4.13;;;30.10;62.50;;;;;;5050266;28;20053;-90
2023/07/08 11:46:31;;;;;;;8.73;4.10;;;30.20;60.50;;;;;;5050340;28;20048;-91
2023/07/08 11:49:01;;;;;;;8.75;4.20;;;30.20;61.30;;;;;;5050293;28;20037;-91
2023/07/08 11:51:30;;;;;;;7.82;4.25;;;30.30;60.80;;;;;;5040818;28;20133;-90
2023/07/08 11:54:03;;;;;;;8.43;4.88;;;30.50;60.60;;;;;;5038500;28;20097;-91
2023/07/08 11:56:56;;;;;;;8.63;4.50;;;30.60;60.70;;;;;;5040871;28;20044;-91
2023/07/08 11:59:24;;;;;;;8.90;4.53;;;30.70;59.20;;;;;;5038247;28;20045;-90
2023/07/08 12:01:50;;;;;;;7.72;4.05;;;30.80;60.40;;;;;;5039044;28;20044;-91
2023/07/08 12:04:25;;;;;;;8.25;4.35;;;30.90;60.30;;;;;;5062685;28;20040;-91
2023/07/08 12:07:19;;;;;;;7.95;4.28;;;31.00;60.00;;;;;;5062630;28;20421;-91
2023/07/08 12:10:10;;;;;;;10.73;5.00;;;31.10;58.40;;;;;;5060585;28;20045;-91
2023/07/08 12:12:40;;;;;;;8.70;4.07;;;31.20;59.40;;;;;;5060772;28;20040;-91
2023/07/08 12:15:18;;;;;;;9.02;4.43;;;31.30;58.80;;;;;;5062600;28;20123;-91
2023/07/08 12:17:45;;;;;;;8.43;4.07;;;31.40;59.40;;;;;;5058713;28;20450;-91
2023/07/08 12:20:35;;;;;;;9.32;4.45;;;31.50;59.90;;;;;;5050964;28;20068;-91
2023/07/08 12:23:01;;;;;;;11.52;5.00;;;31.70;59.80;;;;;;5044433;28;20037;-91
2023/07/08 12:25:31;;;;;;;9.30;5.13;;;31.80;58.20;;;;;;5047093;28;20410;-91
2023/07/08 12:27:57;;;;;;;9.93;5.20;;;31.80;57.10;;;;;;5047699;28;20063;-90
2023/07/08 12:30:25;;;;;;;9.48;5.20;;;31.90;56.00;;;;;;5047050;28;20048;-91
2023/07/08 12:32:51;;;;;;;9.23;4.63;;;31.90;55.90;;;;;;5047072;28;20068;-91
2023/07/08 12:35:27;;;;;;;9.43;5.15;;;32.00;56.40;;;;;;5047834;28;20052;-91
2023/07/08 12:37:56;;;;;;;8.57;5.05;;;32.10;56.00;;;;;;5048183;28;20044;-91
2023/07/08 12:40:22;;;;;;;8.10;5.00;;;32.10;54.90;;;;;;5047127;28;20078;-91
2023/07/08 12:42:48;;;;;;;9.20;5.18;;;32.20;53.70;;;;;;5047249;28;20106;-90
2023/07/08 12:45:17;;;;;;;8.80;4.85;;;32.30;53.30;;;;;;5048040;28;20083;-91
2023/07/08 12:47:44;;;;;;;10.85;5.32;;;32.40;53.80;;;;;;5046713;28;20264;-91
2023/07/08 12:50:10;;;;;;;8.98;5.43;;;32.50;54.70;;;;;;5046358;28;20029;-91
2023/07/08 12:52:36;;;;;;;8.43;5.13;;;32.50;52.00;;;;;;5047357;28;20032;-91
2023/07/08 12:55:02;;;;;;;8.65;5.00;;;32.60;52.00;;;;;;5047798;28;20029;-91
2023/07/08 12:57:27;;;;;;;9.88;5.18;;;32.70;52.20;;;;;;5047247;28;20122;-90